Luna, Louisiana
Current Conditions -  °F | °C
As of 4:28 AM on Sunday 26 Oct 2014 (Local Time) from KMLU Reporting Station
Haze Haze  
Wind Chill: 56°   Ceiling: Unl
Heat Index: 56°   Visibility: 1.5mi
Dew Point: 55°   Wind: 0mph
Humidity: 97%   Direction: NA
Pressure: 30.04"   Gusts: NA
Location:  32.3932°N, 92.2204°W
Report Text: KMLU 260928Z AUTO 00000KT 1 1/2SM BR CLR 13/13 A3004 RMK AO2 T01330128
Loading
Personal Weather Stations






























Interactive Weather Map
Tropical Storm Tracking
New forecast layout! Learn more

10-Day Weather Forecast

Advertisements
Track Severe Weather on mobile